createdAt,value
2018-06-04T00:01:52.437Z,99.60
2018-06-04T00:04:25.788Z,99.70
2018-06-04T00:06:54.985Z,99.70
2018-06-04T00:09:24.347Z,99.80
2018-06-04T00:11:53.477Z,99.90
2018-06-04T00:14:22.759Z,99.90
2018-06-04T00:16:51.840Z,99.90
2018-06-04T00:19:21.048Z,99.90
2018-06-04T00:21:51.020Z,99.90
2018-06-04T00:24:20.143Z,99.90
2018-06-04T00:26:49.297Z,99.90
2018-06-04T00:29:18.379Z,99.90
2018-06-04T00:31:47.503Z,99.90
2018-06-04T00:34:16.676Z,99.90
2018-06-04T00:36:46.305Z,99.90
2018-06-04T00:39:15.831Z,99.90
2018-06-04T00:41:45.265Z,99.90
2018-06-04T00:44:14.541Z,99.90
2018-06-04T00:46:43.973Z,99.90
2018-06-04T00:49:13.297Z,99.90
2018-06-04T00:51:42.851Z,99.90
2018-06-04T00:54:12.260Z,99.90
2018-06-04T00:56:41.647Z,99.90
2018-06-04T00:59:10.988Z,99.90
2018-06-04T01:01:40.290Z,99.90
2018-06-04T01:04:09.704Z,99.90
2018-06-04T01:06:41.490Z,99.90
2018-06-04T01:09:12.630Z,99.90
2018-06-04T01:11:42.143Z,99.90
2018-06-04T01:14:11.594Z,99.90
2018-06-04T01:16:41.247Z,99.90
2018-06-04T01:19:10.579Z,99.90
2018-06-04T01:21:40.026Z,99.90
2018-06-04T01:24:09.932Z,99.90
2018-06-04T01:26:39.438Z,99.90
2018-06-04T01:29:08.738Z,99.90
2018-06-04T01:31:37.967Z,99.90
2018-06-04T01:34:07.263Z,99.90
2018-06-04T01:36:42.424Z,99.90
2018-06-04T01:39:11.832Z,99.90
2018-06-04T01:41:41.482Z,99.90
2018-06-04T01:44:10.878Z,99.90
2018-06-04T01:46:40.268Z,99.90
2018-06-04T01:49:10.349Z,99.90
2018-06-04T01:51:40.182Z,99.90
2018-06-04T01:54:09.612Z,99.90
2018-06-04T01:56:39.670Z,99.90
2018-06-04T01:59:09.147Z,99.90
2018-06-04T02:01:38.480Z,99.90
2018-06-04T02:04:07.755Z,99.90
2018-06-04T02:06:37.379Z,99.90
2018-06-04T02:09:07.090Z,99.90
2018-06-04T02:11:36.353Z,99.90
2018-06-04T02:14:05.641Z,99.90
2018-06-04T02:16:34.946Z,99.90
2018-06-04T02:19:04.305Z,99.90
2018-06-04T02:21:33.461Z,99.90
2018-06-04T02:24:02.746Z,99.90
2018-06-04T02:26:32.857Z,99.90
2018-06-04T02:29:02.220Z,99.90
2018-06-04T02:31:31.569Z,99.90
2018-06-04T02:34:00.772Z,99.90
2018-06-04T02:36:31.086Z,99.90
2018-06-04T02:39:00.302Z,99.90
2018-06-04T02:43:58.410Z,99.90
2018-06-04T02:46:27.571Z,99.90
2018-06-04T02:48:56.942Z,99.90
2018-06-04T02:51:26.178Z,99.90
2018-06-04T02:53:55.262Z,99.90
2018-06-04T02:56:24.443Z,99.90
2018-06-04T02:58:53.520Z,99.90
2018-06-04T03:01:22.591Z,99.90
2018-06-04T03:03:51.706Z,99.90
2018-06-04T03:06:21.223Z,99.90
2018-06-04T03:08:50.401Z,99.90
2018-06-04T03:13:49.748Z,99.90
2018-06-04T03:16:18.929Z,99.90
2018-06-04T03:18:48.193Z,99.90
2018-06-04T03:21:17.346Z,99.90
2018-06-04T03:23:46.499Z,99.90
2018-06-04T03:26:15.821Z,99.90
2018-06-04T03:28:47.188Z,99.90
2018-06-04T03:31:16.402Z,99.90
2018-06-04T03:33:45.865Z,99.90
2018-06-04T03:36:15.062Z,99.90
2018-06-04T03:38:44.220Z,99.90
2018-06-04T03:41:13.478Z,99.90
2018-06-04T03:43:42.649Z,99.90
2018-06-04T03:46:11.883Z,99.90
2018-06-04T03:51:11.071Z,99.90
2018-06-04T03:53:41.804Z,99.90
2018-06-04T03:56:11.008Z,99.90
2018-06-04T03:58:40.273Z,99.90
2018-06-04T04:01:09.557Z,99.90
2018-06-04T04:03:38.736Z,99.90
2018-06-04T04:06:08.050Z,99.90
2018-06-04T04:08:37.237Z,99.90
2018-06-04T04:11:06.644Z,99.90
2018-06-04T04:13:35.780Z,99.90
2018-06-04T04:16:05.054Z,99.90
2018-06-04T04:18:34.169Z,99.90
2018-06-04T04:21:03.447Z,99.90
2018-06-04T04:23:32.558Z,99.90
2018-06-04T04:26:01.746Z,99.90
2018-06-04T04:28:30.869Z,99.90
2018-06-04T04:31:01.294Z,99.90
2018-06-04T04:33:30.421Z,99.90
2018-06-04T04:35:59.780Z,99.90
2018-06-04T04:38:29.259Z,99.90
2018-06-04T04:40:58.424Z,99.90
2018-06-04T04:43:27.821Z,99.90
2018-06-04T04:45:58.130Z,99.90
2018-06-04T04:48:27.440Z,99.90
2018-06-04T04:50:56.759Z,99.90
2018-06-04T04:53:26.019Z,99.90
2018-06-04T04:55:55.168Z,99.90
2018-06-04T04:58:24.820Z,99.90
2018-06-04T05:00:58.047Z,99.90
2018-06-04T05:03:27.363Z,99.90
2018-06-04T05:05:56.899Z,99.90
2018-06-04T05:08:26.322Z,99.90
2018-06-04T05:10:55.852Z,99.90
2018-06-04T05:13:25.038Z,99.90
2018-06-04T05:15:54.544Z,99.90
2018-06-04T05:18:27.565Z,99.90
2018-06-04T05:20:57.683Z,99.90
2018-06-04T05:23:28.541Z,99.90
2018-06-04T05:25:57.922Z,99.90
2018-06-04T05:28:27.937Z,99.90
2018-06-04T05:30:57.324Z,99.90
2018-06-04T05:33:26.986Z,99.90
2018-06-04T05:35:56.405Z,99.90
2018-06-04T05:38:26.198Z,99.90
2018-06-04T05:41:00.154Z,99.90
2018-06-04T05:43:29.871Z,99.90
2018-06-04T05:45:59.811Z,99.90
2018-06-04T05:48:31.656Z,99.90
2018-06-04T05:51:08.251Z,99.90
2018-06-04T05:56:27.466Z,99.90
2018-06-04T05:59:00.883Z,99.90
2018-06-04T06:01:38.225Z,99.90
2018-06-04T06:04:07.856Z,99.90
2018-06-04T06:06:38.624Z,99.90
2018-06-04T06:09:08.950Z,99.90
2018-06-04T06:11:39.498Z,99.90
2018-06-04T06:14:08.735Z,99.90
2018-06-04T06:16:37.725Z,99.90
2018-06-04T06:19:06.547Z,99.90
2018-06-04T06:21:45.968Z,99.90
2018-06-04T06:24:15.804Z,99.90
2018-06-04T06:26:44.584Z,99.90
2018-06-04T06:29:13.371Z,99.90
2018-06-04T06:31:42.132Z,99.90
2018-06-04T06:34:10.976Z,99.80
2018-06-04T06:36:43.665Z,99.90
2018-06-04T06:39:15.175Z,99.90
2018-06-04T06:41:43.976Z,99.80
2018-06-04T06:44:12.862Z,99.60
2018-06-04T06:46:44.260Z,99.80
2018-06-04T06:49:13.261Z,99.90
2018-06-04T06:51:42.044Z,99.90
2018-06-04T06:54:10.844Z,99.90
2018-06-04T06:56:39.629Z,99.90
2018-06-04T06:59:08.417Z,99.90
2018-06-04T07:01:37.193Z,99.90
2018-06-04T07:04:05.983Z,99.90
2018-06-04T07:06:34.764Z,99.90
2018-06-04T07:09:05.508Z,99.90
2018-06-04T07:11:34.717Z,99.90
2018-06-04T07:14:06.364Z,99.90
2018-06-04T07:16:35.139Z,99.90
2018-06-04T07:19:03.939Z,99.90
2018-06-04T07:21:32.720Z,99.90
2018-06-04T07:24:01.513Z,99.90
2018-06-04T07:26:30.273Z,99.90
2018-06-04T07:28:59.061Z,99.90
2018-06-04T07:31:27.887Z,99.70
2018-06-04T07:33:59.218Z,99.60
2018-06-04T07:36:27.991Z,99.60
2018-06-04T07:38:56.760Z,99.50
2018-06-04T07:41:25.551Z,99.00
2018-06-04T07:43:54.316Z,98.80
2018-06-04T07:46:24.317Z,98.90
2018-06-04T07:48:53.100Z,98.40
2018-06-04T07:53:50.321Z,97.70
2018-06-04T07:56:19.073Z,98.40
2018-06-04T07:58:47.849Z,98.30
2018-06-04T08:01:16.612Z,97.90
2018-06-04T08:03:45.369Z,97.90
2018-06-04T08:06:14.167Z,98.10
2018-06-04T08:08:43.013Z,98.10
2018-06-04T08:11:11.791Z,97.90
2018-06-04T08:13:40.592Z,98.10
2018-06-04T08:16:09.411Z,97.80
2018-06-04T08:18:38.172Z,97.00
2018-06-04T08:21:06.960Z,96.40
2018-06-04T08:23:35.748Z,96.80
2018-06-04T08:26:04.508Z,96.50
2018-06-04T08:28:33.996Z,96.90
2018-06-04T08:31:02.772Z,96.60
2018-06-04T08:33:35.627Z,96.60
2018-06-04T08:36:04.393Z,96.20
2018-06-04T08:38:33.275Z,96.30
2018-06-04T08:41:01.994Z,96.50
2018-06-04T08:43:30.783Z,96.30
2018-06-04T08:46:02.584Z,96.60
2018-06-04T08:48:31.356Z,96.70
2018-06-04T08:51:00.165Z,95.90
2018-06-04T08:53:28.929Z,95.30
2018-06-04T08:55:57.705Z,95.10
2018-06-04T08:58:26.474Z,94.50
2018-06-04T09:00:57.153Z,93.80
2018-06-04T09:03:25.933Z,93.30
2018-06-04T09:05:54.745Z,92.90
2018-06-04T09:08:23.508Z,91.90
2018-06-04T09:10:52.284Z,91.80
2018-06-04T09:13:21.084Z,90.90
2018-06-04T09:15:49.951Z,91.00
2018-06-04T09:20:47.125Z,87.80
2018-06-04T09:23:15.888Z,88.90
2018-06-04T09:25:44.669Z,86.90
2018-06-04T09:28:13.455Z,87.30
2018-06-04T09:30:42.231Z,82.60
2018-06-04T09:33:11.002Z,78.20
2018-06-04T09:35:39.756Z,81.90
2018-06-04T09:38:08.545Z,78.70
2018-06-04T09:40:37.564Z,80.90
2018-06-04T09:43:06.348Z,81.70
2018-06-04T09:45:35.115Z,80.80
2018-06-04T09:48:06.112Z,79.80
2018-06-04T09:50:35.187Z,77.80
2018-06-04T09:53:04.005Z,70.60
2018-06-04T09:55:32.812Z,61.40
2018-06-04T09:58:01.571Z,60.00
2018-06-04T10:00:34.170Z,57.60
2018-06-04T10:03:03.988Z,59.30
2018-06-04T10:05:32.830Z,58.40
2018-06-04T10:08:01.586Z,55.20
2018-06-04T10:10:30.372Z,54.10
2018-06-04T10:12:59.127Z,58.60
2018-06-04T10:15:28.191Z,56.00
2018-06-04T10:17:56.965Z,56.30
2018-06-04T10:20:25.829Z,55.10
2018-06-04T10:22:54.699Z,52.80
2018-06-04T10:25:26.224Z,51.00
2018-06-04T10:27:55.038Z,53.00
2018-06-04T10:30:23.792Z,54.20
2018-06-04T10:32:52.584Z,53.70
2018-06-04T10:35:21.374Z,50.30
2018-06-04T10:37:50.159Z,52.10
2018-06-04T10:40:18.942Z,51.40
2018-06-04T10:42:47.697Z,50.90
2018-06-04T10:45:20.210Z,52.00
2018-06-04T10:47:49.025Z,49.30
2018-06-04T10:50:17.797Z,49.50
2018-06-04T10:52:46.549Z,49.50
2018-06-04T10:55:15.328Z,48.80
2018-06-04T10:57:44.096Z,47.40
2018-06-04T11:00:12.860Z,47.20
2018-06-04T11:02:41.628Z,46.50
2018-06-04T11:05:10.408Z,48.40
2018-06-04T11:07:39.174Z,47.30
2018-06-04T11:10:07.920Z,48.20
2018-06-04T11:12:36.688Z,47.50
2018-06-04T11:15:05.425Z,47.80
2018-06-04T11:17:36.277Z,46.90
2018-06-04T11:22:33.512Z,47.50
2018-06-04T11:25:02.280Z,46.80
2018-06-04T11:27:31.058Z,47.20
2018-06-04T11:29:59.840Z,46.90
2018-06-04T11:32:28.610Z,47.20
2018-06-04T11:34:57.398Z,48.30
2018-06-04T11:37:26.215Z,48.10
2018-06-04T11:39:55.420Z,47.50
2018-06-04T11:42:24.285Z,46.10
2018-06-04T11:44:53.226Z,46.60
2018-06-04T11:47:22.019Z,45.60
2018-06-04T11:49:50.806Z,44.60
2018-06-04T11:52:19.601Z,45.40
2018-06-04T11:54:48.391Z,44.80
2018-06-04T11:57:17.167Z,44.30
2018-06-04T11:59:45.967Z,45.00
2018-06-04T12:02:14.746Z,45.00
2018-06-04T12:04:43.530Z,46.70
2018-06-04T12:07:12.319Z,47.50
2018-06-04T12:09:41.108Z,46.60
2018-06-04T12:12:10.005Z,46.40
2018-06-04T12:14:38.832Z,47.20
2018-06-04T12:17:07.636Z,47.90
2018-06-04T12:19:36.421Z,49.60
2018-06-04T12:22:06.993Z,48.60
2018-06-04T12:24:35.788Z,47.80
2018-06-04T12:27:04.628Z,46.30
2018-06-04T12:29:33.432Z,46.40
2018-06-04T12:32:02.266Z,46.40
2018-06-04T12:34:31.063Z,46.80
2018-06-04T12:36:59.892Z,45.70
2018-06-04T12:39:28.655Z,45.80
2018-06-04T12:41:57.443Z,44.90
2018-06-04T12:44:26.225Z,45.50
2018-06-04T12:47:00.044Z,45.10
2018-06-04T12:49:28.825Z,44.10
2018-06-04T12:51:57.608Z,44.20
2018-06-04T12:54:28.135Z,43.80
2018-06-04T12:56:56.928Z,43.40
2018-06-04T12:59:25.768Z,42.20
2018-06-04T13:01:54.516Z,42.50
2018-06-04T13:04:26.434Z,43.90
2018-06-04T13:06:55.188Z,42.40
2018-06-04T13:09:23.971Z,42.90
2018-06-04T13:11:52.747Z,43.70
2018-06-04T13:14:21.520Z,42.90
2018-06-04T13:16:50.285Z,43.80
2018-06-04T13:19:19.096Z,43.00
2018-06-04T13:21:47.883Z,42.90
2018-06-04T13:24:16.633Z,43.50
2018-06-04T13:26:45.379Z,44.00
2018-06-04T13:29:14.139Z,43.30
2018-06-04T13:31:42.912Z,43.00
2018-06-04T13:34:11.690Z,41.00
2018-06-04T13:39:09.083Z,40.40
2018-06-04T13:41:37.851Z,40.90
2018-06-04T13:44:06.648Z,40.70
2018-06-04T13:46:35.408Z,41.20
2018-06-04T13:49:04.213Z,42.20
2018-06-04T13:51:32.975Z,42.30
2018-06-04T13:54:01.737Z,41.50
2018-06-04T13:56:30.491Z,41.70
2018-06-04T13:58:59.249Z,42.60
2018-06-04T14:01:28.132Z,42.50
2018-06-04T14:03:56.883Z,42.20
2018-06-04T14:06:25.655Z,42.00
2018-06-04T14:08:54.432Z,42.40
2018-06-04T14:11:23.203Z,41.70
2018-06-04T14:13:51.968Z,41.80
2018-06-04T14:16:20.737Z,41.70
2018-06-04T14:18:50.212Z,41.60
2018-06-04T14:21:18.979Z,40.90
2018-06-04T14:26:16.231Z,42.10
2018-06-04T14:28:45.097Z,43.80
2018-06-04T14:31:13.887Z,44.60
2018-06-04T14:33:42.732Z,44.30
2018-06-04T14:36:11.462Z,44.00
2018-06-04T14:38:40.259Z,43.80
2018-06-04T14:41:09.040Z,43.60
2018-06-04T14:43:37.981Z,43.40
2018-06-04T14:46:09.772Z,43.90
2018-06-04T14:48:38.545Z,43.40
2018-06-04T14:51:07.288Z,43.30
2018-06-04T14:53:36.039Z,44.40
2018-06-04T14:56:04.808Z,43.60
2018-06-04T14:58:33.555Z,42.90
2018-06-04T15:01:02.672Z,43.50
2018-06-04T15:03:31.395Z,43.90
2018-06-04T15:06:00.151Z,44.00
2018-06-04T15:08:28.908Z,43.60
2018-06-04T15:10:57.681Z,43.70
2018-06-04T15:13:26.483Z,41.30
2018-06-04T15:15:55.296Z,41.60
2018-06-04T15:18:24.057Z,42.20
2018-06-04T15:20:52.824Z,42.40
2018-06-04T15:23:21.588Z,41.70
2018-06-04T15:25:50.356Z,42.60
2018-06-04T15:28:19.520Z,43.00
2018-06-04T15:30:49.054Z,41.40
2018-06-04T15:33:22.906Z,42.70
2018-06-04T15:35:55.370Z,42.00
2018-06-04T15:38:25.609Z,42.60
2018-06-04T15:40:54.672Z,41.90
2018-06-04T15:43:23.915Z,41.10
2018-06-04T15:45:52.734Z,42.40
2018-06-04T15:48:25.871Z,42.60
2018-06-04T15:50:55.018Z,42.10
2018-06-04T15:53:23.936Z,41.60
2018-06-04T15:55:52.853Z,40.50
2018-06-04T15:58:22.073Z,40.00
2018-06-04T16:00:50.839Z,40.30
2018-06-04T16:03:19.608Z,41.40
2018-06-04T16:05:49.952Z,42.10
2018-06-04T16:08:18.748Z,41.50
2018-06-04T16:10:47.538Z,43.10
2018-06-04T16:13:17.517Z,41.60
2018-06-04T16:15:46.659Z,42.20
2018-06-04T16:18:15.491Z,41.50
2018-06-04T16:20:44.290Z,42.00
2018-06-04T16:23:13.047Z,41.40
2018-06-04T16:25:41.860Z,40.80
2018-06-04T16:28:10.656Z,41.70
2018-06-04T16:30:39.440Z,42.30
2018-06-04T16:33:08.657Z,41.70
2018-06-04T16:35:37.469Z,43.00
2018-06-04T16:38:06.451Z,43.00
2018-06-04T16:40:35.534Z,42.90
2018-06-04T16:43:04.433Z,42.80
2018-06-04T16:45:33.251Z,43.40
2018-06-04T16:48:02.063Z,43.10
2018-06-04T16:50:30.971Z,43.50
2018-06-04T16:52:59.807Z,43.40
2018-06-04T16:55:28.639Z,43.30
2018-06-04T16:57:57.404Z,44.10
2018-06-04T17:00:26.168Z,44.40
2018-06-04T17:02:54.979Z,43.90
2018-06-04T17:05:23.798Z,44.30
2018-06-04T17:07:52.579Z,44.90
2018-06-04T17:10:21.358Z,46.30
2018-06-04T17:12:50.111Z,47.10
2018-06-04T17:15:18.952Z,47.30
2018-06-04T17:17:47.717Z,47.40
2018-06-04T17:20:16.583Z,48.90
2018-06-04T17:22:45.358Z,49.10
2018-06-04T17:25:14.188Z,48.70
2018-06-04T17:27:43.048Z,49.50
2018-06-04T17:30:15.598Z,50.40
2018-06-04T17:32:45.492Z,51.40
2018-06-04T17:35:14.377Z,51.10
2018-06-04T17:37:43.151Z,50.80
2018-06-04T17:40:11.928Z,50.40
2018-06-04T17:42:40.860Z,51.80
2018-06-04T17:45:09.731Z,51.30
2018-06-04T17:47:38.525Z,51.10
2018-06-04T17:50:08.981Z,51.30
2018-06-04T17:52:37.762Z,52.40
2018-06-04T17:55:06.549Z,52.70
2018-06-04T17:57:35.342Z,51.90
2018-06-04T18:00:05.412Z,51.60
2018-06-04T18:02:34.168Z,50.80
2018-06-04T18:05:02.933Z,50.40
2018-06-04T18:07:31.776Z,50.90
2018-06-04T18:10:00.587Z,51.60
2018-06-04T18:12:29.613Z,51.00
2018-06-04T18:14:58.391Z,50.40
2018-06-04T18:17:27.371Z,50.80
2018-06-04T18:19:56.260Z,51.00
2018-06-04T18:22:26.606Z,53.10
2018-06-04T18:24:55.711Z,54.60
2018-06-04T18:27:24.600Z,53.80
2018-06-04T18:29:55.113Z,57.10
2018-06-04T18:32:24.066Z,56.30
2018-06-04T18:34:52.843Z,58.00
2018-06-04T18:37:22.147Z,59.70
2018-06-04T18:39:53.986Z,61.20
2018-06-04T18:42:23.050Z,61.80
2018-06-04T18:44:52.059Z,62.30
2018-06-04T18:47:21.111Z,63.90
2018-06-04T18:49:50.270Z,65.30
2018-06-04T18:52:19.296Z,66.70
2018-06-04T18:54:48.692Z,67.40
2018-06-04T18:57:17.997Z,67.20
2018-06-04T18:59:48.477Z,67.80
2018-06-04T19:02:17.458Z,67.80
2018-06-04T19:04:47.750Z,66.90
2018-06-04T19:07:16.611Z,66.60
2018-06-04T19:09:45.384Z,66.80
2018-06-04T19:12:14.583Z,66.90
2018-06-04T19:14:43.772Z,67.30
2018-06-04T19:17:15.118Z,68.30
2018-06-04T19:24:53.542Z,68.20
2018-06-04T19:27:27.373Z,69.20
2018-06-04T19:30:00.762Z,70.60
2018-06-04T19:32:31.591Z,71.50
2018-06-04T19:35:01.879Z,70.60
2018-06-04T19:37:30.852Z,70.60
2018-06-04T19:39:59.755Z,70.70
2018-06-04T19:42:28.608Z,71.00
2018-06-04T19:45:02.109Z,71.50
2018-06-04T19:47:32.407Z,71.80
2018-06-04T19:50:05.685Z,72.30
2018-06-04T19:52:35.315Z,72.30
2018-06-04T19:55:04.260Z,72.90
2018-06-04T19:57:38.049Z,73.20
2018-06-04T20:00:08.305Z,73.10
2018-06-04T20:02:37.573Z,73.20
2018-06-04T20:05:06.864Z,73.20
2018-06-04T20:07:35.621Z,73.50
2018-06-04T20:10:05.290Z,73.30
2018-06-04T20:12:39.851Z,73.30
2018-06-04T20:15:15.297Z,73.80
2018-06-04T20:17:44.523Z,74.30
2018-06-04T20:20:13.860Z,73.90
2018-06-04T20:22:42.928Z,73.60
2018-06-04T20:25:11.880Z,73.40
2018-06-04T20:27:40.719Z,73.50
2018-06-04T20:30:09.712Z,74.40
2018-06-04T20:32:39.334Z,76.90
2018-06-04T20:35:11.686Z,78.90
2018-06-04T20:37:43.144Z,79.20
2018-06-04T20:40:20.160Z,79.10
2018-06-04T20:59:04.891Z,81.30
2018-06-04T21:01:35.166Z,83.70
2018-06-04T21:04:29.358Z,83.70
2018-06-04T21:08:07.806Z,84.40
2018-06-04T21:10:49.725Z,85.10
2018-06-04T21:13:24.047Z,86.50
2018-06-04T21:15:53.239Z,87.30
2018-06-04T21:18:24.597Z,87.80
2018-06-04T21:20:56.567Z,88.60
2018-06-04T21:23:25.980Z,88.80
2018-06-04T21:25:55.076Z,89.80
2018-06-04T21:28:24.240Z,89.00
2018-06-04T21:30:53.347Z,88.70
2018-06-04T21:33:22.453Z,89.00
2018-06-04T21:35:52.400Z,89.30
2018-06-04T21:38:24.659Z,88.80
2018-06-04T21:45:20.015Z,89.10
2018-06-04T21:47:53.415Z,90.00
2018-06-04T21:50:41.480Z,90.20
2018-06-04T22:03:16.729Z,90.20
2018-06-04T22:05:57.365Z,90.30
2018-06-04T22:08:30.915Z,90.20
2018-06-04T22:11:00.112Z,90.70
2018-06-04T22:13:29.517Z,90.80
2018-06-04T22:16:02.634Z,91.00
2018-06-04T22:18:39.614Z,91.60
2018-06-04T22:23:59.312Z,92.20
2018-06-04T22:26:38.997Z,92.60
2018-06-04T22:29:12.450Z,92.70
2018-06-04T22:32:05.743Z,93.00
2018-06-04T22:34:40.870Z,92.20
2018-06-04T22:37:19.821Z,92.40
2018-06-04T22:39:53.828Z,92.40
2018-06-04T22:45:39.434Z,92.20
2018-06-04T22:48:27.753Z,92.20
2018-06-04T22:50:58.078Z,92.20
2018-06-04T22:53:27.541Z,92.80
2018-06-04T22:55:57.106Z,92.90
2018-06-04T22:58:34.872Z,93.00
2018-06-04T23:01:19.055Z,93.20
2018-06-04T23:03:49.155Z,93.30
2018-06-04T23:06:18.380Z,93.20
2018-06-04T23:08:51.817Z,93.20
2018-06-04T23:11:20.965Z,93.10
2018-06-04T23:16:53.672Z,93.10
2018-06-04T23:19:23.440Z,93.40
2018-06-04T23:21:52.687Z,93.80
2018-06-04T23:24:22.032Z,94.00
2018-06-04T23:26:51.224Z,94.10
2018-06-04T23:29:20.622Z,94.10
2018-06-04T23:31:50.257Z,94.10
2018-06-04T23:34:19.813Z,94.20
2018-06-04T23:36:51.473Z,94.20
2018-06-04T23:39:21.421Z,94.30
2018-06-04T23:41:51.821Z,94.20
2018-06-04T23:44:21.034Z,94.20
2018-06-04T23:46:51.031Z,94.40
2018-06-04T23:49:20.254Z,94.80
2018-06-04T23:51:49.231Z,94.70
2018-06-04T23:54:18.384Z,94.60
2018-06-04T23:56:47.670Z,94.50
2018-06-04T23:59:17.200Z,94.70
